Scurry, Texas
Current Conditions -  °F | °C
As of 10:53 PM on Wednesday 22 Oct 2014 (Local Time) from KTRL Reporting Station
Clear Clear  
Wind Chill: 69°   Ceiling: Unl
Heat Index: 69°   Visibility: 10mi
Dew Point: 54°   Wind: 8mph
Humidity: 58%   Direction: 100°E
Pressure: 30.12"   Gusts: NA
Location:  32.52°N, 96.38°W
Report Text: KTRL 230353Z AUTO 10007KT 10SM CLR 21/12 A3012 RMK AO2 SLP194 T02060122
Loading
Personal Weather Stations






























Interactive Weather Map
Tropical Storm Tracking
New forecast layout! Learn more

10-Day Weather Forecast

Advertisements
Track Severe Weather on mobile